createdAt,value
2022-11-24T00:02:56.610Z,100236.09
2022-11-24T00:08:18.523Z,100245.81
2022-11-24T00:13:40.578Z,100253.53
2022-11-24T00:19:04.377Z,100246.31
2022-11-24T00:24:26.002Z,100251.28
2022-11-24T00:29:47.640Z,100246.84
2022-11-24T00:35:09.389Z,100244.34
2022-11-24T00:40:34.987Z,100242.66
2022-11-24T00:45:57.154Z,100250.41
2022-11-24T00:51:21.369Z,100252.34
2022-11-24T00:56:43.205Z,100258.13
2022-11-24T01:02:04.922Z,100259.50
2022-11-24T01:07:26.724Z,100257.84
2022-11-24T01:12:48.459Z,100261.69
2022-11-24T01:18:10.174Z,100271.09
2022-11-24T01:23:32.668Z,100268.84
2022-11-24T01:28:56.368Z,100277.16
2022-11-24T01:34:18.056Z,100288.53
2022-11-24T01:39:39.815Z,100285.16
2022-11-24T01:45:29.994Z,100282.41
2022-11-24T01:50:57.758Z,100281.00
2022-11-24T01:56:20.112Z,100284.03
2022-11-24T02:01:41.872Z,100296.22
2022-11-24T02:07:06.977Z,100311.97
2022-11-24T02:12:28.968Z,100315.03
2022-11-24T02:17:50.665Z,100316.13
2022-11-24T02:23:24.996Z,100322.47
2022-11-24T02:28:47.602Z,100328.56
2022-11-24T02:34:09.251Z,100329.66
2022-11-24T02:39:30.939Z,100340.97
2022-11-24T02:44:57.568Z,100352.06
2022-11-24T02:50:19.644Z,100350.66
2022-11-24T02:55:41.573Z,100356.19
2022-11-24T03:01:03.427Z,100362.78
2022-11-24T03:06:25.113Z,100365.56
2022-11-24T03:11:46.843Z,100360.28
2022-11-24T03:17:08.684Z,100356.66
2022-11-24T03:22:30.339Z,100358.84
2022-11-24T03:27:52.076Z,100358.03
2022-11-24T03:33:13.732Z,100371.03
2022-11-24T03:38:35.582Z,100381.53
2022-11-24T03:43:57.287Z,100392.63
2022-11-24T03:49:19.102Z,100381.78
2022-11-24T03:54:41.010Z,100390.34
2022-11-24T04:00:02.783Z,100393.13
2022-11-24T04:05:25.404Z,100400.59
2022-11-24T04:10:51.408Z,100401.69
2022-11-24T04:16:13.215Z,100404.69
2022-11-24T04:21:35.025Z,100424.34
2022-11-24T04:26:56.668Z,100434.56
2022-11-24T04:32:18.554Z,100424.59
2022-11-24T04:37:40.826Z,100437.34
2022-11-24T04:43:02.508Z,100449.50
2022-11-24T04:48:24.182Z,100447.84
2022-11-24T04:53:46.087Z,100455.31
2022-11-24T04:59:08.609Z,100451.72
2022-11-24T05:04:30.551Z,100461.13
2022-11-24T05:10:10.684Z,100468.84
2022-11-24T05:15:32.416Z,100490.97
2022-11-24T05:20:54.095Z,100488.47
2022-11-24T05:26:15.792Z,100502.56
2022-11-24T05:31:37.574Z,100514.47
2022-11-24T05:37:03.217Z,100516.41
2022-11-24T05:42:47.809Z,100529.06
2022-11-24T05:48:15.249Z,100536.28
2022-11-24T05:53:36.907Z,100549.56
2022-11-24T05:58:58.549Z,100548.69
2022-11-24T06:04:20.192Z,100571.69
2022-11-24T06:09:43.203Z,100574.47
2022-11-24T06:15:05.364Z,100581.09
2022-11-24T06:20:31.320Z,100596.63
2022-11-24T06:25:54.387Z,100599.38
2022-11-24T06:31:16.173Z,100613.22
2022-11-24T06:36:38.758Z,100620.66
2022-11-24T06:42:00.604Z,100635.38
2022-11-24T06:47:22.241Z,100643.91
2022-11-24T06:52:43.880Z,100651.38
2022-11-24T06:58:05.563Z,100666.91
2022-11-24T07:03:27.549Z,100679.06
2022-11-24T07:08:50.145Z,100688.47
2022-11-24T07:14:11.882Z,100710.00
2022-11-24T07:19:33.629Z,100706.41
2022-11-24T07:24:55.366Z,100726.88
2022-11-24T07:30:17.326Z,100735.25
2022-11-24T07:35:39.008Z,100750.94
2022-11-24T07:41:02.451Z,100762.25
2022-11-24T07:46:24.259Z,100762.34
2022-11-24T07:51:46.132Z,100777.16
2022-11-24T07:57:07.768Z,100778.56
2022-11-24T08:02:29.427Z,100793.00
2022-11-24T08:07:51.125Z,100810.00
2022-11-24T08:13:13.122Z,100828.22
2022-11-24T08:18:35.758Z,100835.94
2022-11-24T08:23:58.040Z,100845.31
2022-11-24T08:29:19.751Z,100847.47
2022-11-24T08:34:41.401Z,100855.16
2022-11-24T08:40:03.184Z,100864.56
2022-11-24T08:45:25.796Z,100879.50
2022-11-24T08:50:47.570Z,100889.75
2022-11-24T08:56:11.175Z,100890.56
2022-11-24T09:01:33.002Z,100900.00
2022-11-24T09:06:54.876Z,100909.38
2022-11-24T09:12:16.707Z,100913.25
2022-11-24T09:17:38.439Z,100914.06
2022-11-24T09:23:00.171Z,100908.78
2022-11-24T09:28:21.850Z,100921.19
2022-11-24T09:33:44.690Z,100931.69
2022-11-24T09:39:06.544Z,100935.75
2022-11-24T09:44:49.568Z,100938.53
2022-11-24T09:50:13.873Z,100951.78
2022-11-24T09:55:38.636Z,100960.31
2022-11-24T10:01:00.579Z,100968.03
2022-11-24T10:06:34.831Z,100970.56
2022-11-24T10:12:16.575Z,100974.44
2022-11-24T10:18:03.157Z,100967.19
2022-11-24T10:23:44.551Z,100974.06
2022-11-24T10:29:30.673Z,100974.91
2022-11-24T10:34:54.289Z,100970.69
2022-11-24T10:40:55.501Z,100963.22
2022-11-24T10:46:19.814Z,100969.00
2022-11-24T10:52:01.544Z,100972.59
2022-11-24T10:57:34.591Z,100977.31
2022-11-24T11:03:19.733Z,100983.94
2022-11-24T11:08:41.448Z,100980.56
2022-11-24T11:14:08.998Z,100989.94
2022-11-24T11:19:50.933Z,100981.16
2022-11-24T11:25:13.555Z,100987.19
2022-11-24T11:36:17.317Z,100974.19
2022-11-24T11:41:45.033Z,100981.41
2022-11-24T11:47:27.955Z,100980.56
2022-11-24T11:53:27.371Z,100976.97
2022-11-24T11:58:51.937Z,100974.66
2022-11-24T12:04:21.396Z,100971.91
2022-11-24T12:09:55.291Z,100985.75
2022-11-24T12:15:48.123Z,100969.13
2022-11-24T12:21:27.021Z,100967.44
2022-11-24T12:26:52.564Z,100967.69
2022-11-24T12:32:26.048Z,100958.53
2022-11-24T12:37:58.326Z,100969.59
2022-11-24T12:43:39.020Z,100963.00
2022-11-24T12:49:08.811Z,100974.53
2022-11-24T12:54:38.838Z,100968.78
2022-11-24T13:00:16.851Z,100976.22
2022-11-24T13:06:01.389Z,100967.09
2022-11-24T13:11:23.163Z,100973.97
2022-11-24T13:17:30.042Z,100969.00
2022-11-24T13:22:40.244Z,100962.88
2022-11-24T13:28:04.096Z,100947.09
2022-11-24T13:33:29.965Z,100956.25
2022-11-24T13:38:53.071Z,100955.41
2022-11-24T13:44:15.004Z,100961.19
2022-11-24T13:49:48.877Z,100956.25
2022-11-24T13:55:13.637Z,100947.94
2022-11-24T14:00:58.451Z,100945.41
2022-11-24T14:06:35.854Z,100951.81
2022-11-24T14:12:03.847Z,100953.97
2022-11-24T14:17:28.640Z,100954.81
2022-11-24T14:22:51.245Z,100972.75
2022-11-24T14:28:22.850Z,100972.28
2022-11-24T14:33:44.526Z,100971.88
2022-11-24T14:39:06.838Z,100967.22
2022-11-24T14:44:31.560Z,100953.59
2022-11-24T14:49:54.746Z,100964.91
2022-11-24T14:55:30.869Z,100966.59
2022-11-24T15:01:20.635Z,100963.84
2022-11-24T15:06:44.335Z,100966.34
2022-11-24T15:12:17.006Z,100965.41
2022-11-24T15:17:47.413Z,100968.66
2022-11-24T15:23:25.408Z,100963.00
2022-11-24T15:28:47.279Z,100957.22
2022-11-24T15:34:14.309Z,100948.50
2022-11-24T15:39:36.181Z,100944.66
2022-11-24T15:44:57.822Z,100942.09
2022-11-24T15:50:20.078Z,100939.81
2022-11-24T15:55:41.747Z,100949.63
2022-11-24T16:01:03.503Z,100959.22
2022-11-24T16:06:25.758Z,100957.06
2022-11-24T16:11:47.532Z,100962.00
2022-11-24T16:17:09.137Z,100962.75
2022-11-24T16:22:30.796Z,100957.34
2022-11-24T16:27:52.886Z,100955.81
2022-11-24T16:33:14.580Z,100959.00
2022-11-24T16:38:36.240Z,100953.59
2022-11-24T16:43:58.099Z,100950.97
2022-11-24T16:49:19.985Z,100963.88
2022-11-24T16:54:41.850Z,100967.41
2022-11-24T17:00:05.492Z,100963.41
2022-11-24T17:05:27.747Z,100977.16
2022-11-24T17:10:49.435Z,100974.91
2022-11-24T17:16:14.178Z,100968.63
2022-11-24T17:21:35.986Z,100965.31
2022-11-24T17:26:57.614Z,100965.13
2022-11-24T17:32:19.298Z,100963.56
2022-11-24T17:37:40.998Z,100958.44
2022-11-24T17:43:02.893Z,100951.06
2022-11-24T17:48:25.035Z,100948.78
2022-11-24T17:53:49.442Z,100939.25
2022-11-24T17:59:11.225Z,100920.03
2022-11-24T18:04:34.082Z,100929.50
2022-11-24T18:09:55.897Z,100932.81
2022-11-24T18:15:17.692Z,100923.22
2022-11-24T18:20:42.298Z,100920.91
2022-11-24T18:26:05.755Z,100919.41
2022-11-24T18:31:27.601Z,100914.00
2022-11-24T18:36:52.256Z,100914.19
2022-11-24T18:42:14.271Z,100912.69
2022-11-24T18:47:35.920Z,100930.59
2022-11-24T18:52:57.769Z,100915.97
2022-11-24T18:58:22.148Z,100940.31
2022-11-24T19:03:48.736Z,100936.59
2022-11-24T19:09:18.990Z,100938.94
2022-11-24T19:14:40.736Z,100933.16
2022-11-24T19:20:02.806Z,100918.38
2022-11-24T19:25:24.479Z,100908.13
2022-11-24T19:30:46.234Z,100914.13
2022-11-24T19:36:13.836Z,100917.88
2022-11-24T19:41:35.633Z,100917.09
2022-11-24T19:46:57.278Z,100912.41
2022-11-24T19:52:18.971Z,100912.91
2022-11-24T19:57:40.628Z,100909.22
2022-11-24T20:03:02.369Z,100903.53
2022-11-24T20:08:24.059Z,100908.44
2022-11-24T20:13:47.212Z,100901.38
2022-11-24T20:19:13.282Z,100916.03
2022-11-24T20:24:35.057Z,100902.91
2022-11-24T20:29:57.021Z,100891.31
2022-11-24T20:35:18.983Z,100893.81
2022-11-24T20:40:43.775Z,100894.69
2022-11-24T20:46:08.654Z,100892.41
2022-11-24T20:51:34.003Z,100883.41
2022-11-24T20:56:55.644Z,100878.28
2022-11-24T21:02:17.392Z,100888.22
2022-11-24T21:07:39.131Z,100877.13
2022-11-24T21:13:00.867Z,100892.66
2022-11-24T21:18:22.530Z,100877.63
2022-11-24T21:23:47.295Z,100867.28
2022-11-24T21:29:11.668Z,100863.00
2022-11-24T21:34:33.627Z,100862.94
2022-11-24T21:39:55.420Z,100856.72
2022-11-24T21:45:17.201Z,100853.84
2022-11-24T21:50:39.074Z,100844.63
2022-11-24T21:56:02.815Z,100839.25
2022-11-24T22:01:28.243Z,100844.13
2022-11-24T22:06:50.011Z,100844.53
2022-11-24T22:12:11.666Z,100846.44
2022-11-24T22:17:33.302Z,100838.91
2022-11-24T22:22:55.022Z,100822.75
2022-11-24T22:28:16.663Z,100825.78
2022-11-24T22:33:38.983Z,100822.41
2022-11-24T22:39:05.791Z,100824.88
2022-11-24T22:44:27.421Z,100836.44
2022-11-24T22:49:49.187Z,100832.25
2022-11-24T22:55:10.818Z,100822.75
2022-11-24T23:00:32.459Z,100825.78
2022-11-24T23:05:54.279Z,100821.31
2022-11-24T23:11:25.850Z,100824.34
2022-11-24T23:16:50.950Z,100814.00
2022-11-24T23:22:12.650Z,100810.63
2022-11-24T23:27:34.586Z,100811.97
2022-11-24T23:32:56.231Z,100797.78
2022-11-24T23:38:18.041Z,100813.00
2022-11-24T23:43:41.933Z,100809.38
2022-11-24T23:49:03.982Z,100810.72
2022-11-24T23:54:25.619Z,100803.75
2022-11-24T23:59:47.273Z,100809.53
